sensor_id;sensor_type;location;lat;lon;timestamp;pressure;altitude;pressure_sealevel;temperature;humidity
20156;BME280;10238;49.556;10.956;2023-09-12T00:00:48;98041.31;;;17.41;100.00
20156;BME280;10238;49.556;10.956;2023-09-12T00:03:36;98041.72;;;17.38;100.00
20156;BME280;10238;49.556;10.956;2023-09-12T00:06:24;98035.91;;;17.35;100.00
20156;BME280;10238;49.556;10.956;2023-09-12T00:09:11;98033.81;;;17.30;100.00
20156;BME280;10238;49.556;10.956;2023-09-12T00:11:59;98034.22;;;17.27;100.00
20156;BME280;10238;49.556;10.956;2023-09-12T00:14:48;98037.31;;;17.24;100.00
20156;BME280;10238;49.556;10.956;2023-09-12T00:17:35;98035.06;;;17.21;100.00
20156;BME280;10238;49.556;10.956;2023-09-12T00:20:23;98024.72;;;17.18;100.00
20156;BME280;10238;49.556;10.956;2023-09-12T00:23:12;98023.28;;;17.15;100.00
20156;BME280;10238;49.556;10.956;2023-09-12T00:26:00;98025.56;;;17.12;100.00
20156;BME280;10238;49.556;10.956;2023-09-12T00:28:47;98017.91;;;17.09;100.00
20156;BME280;10238;49.556;10.956;2023-09-12T00:31:36;98013.13;;;17.04;100.00
20156;BME280;10238;49.556;10.956;2023-09-12T00:34:24;98015.59;;;16.99;100.00
20156;BME280;10238;49.556;10.956;2023-09-12T00:37:11;98022.22;;;16.97;100.00
20156;BME280;10238;49.556;10.956;2023-09-12T00:39:59;98018.28;;;16.93;100.00
20156;BME280;10238;49.556;10.956;2023-09-12T00:42:47;98011.63;;;16.89;100.00
20156;BME280;10238;49.556;10.956;2023-09-12T00:45:34;98010.41;;;16.85;100.00
20156;BME280;10238;49.556;10.956;2023-09-12T00:48:23;98008.13;;;16.82;100.00
20156;BME280;10238;49.556;10.956;2023-09-12T00:51:12;98011.41;;;16.77;100.00
20156;BME280;10238;49.556;10.956;2023-09-12T00:54:00;98007.28;;;16.75;100.00
20156;BME280;10238;49.556;10.956;2023-09-12T00:56:48;98008.50;;;16.72;100.00
20156;BME280;10238;49.556;10.956;2023-09-12T00:59:36;98006.44;;;16.68;100.00
20156;BME280;10238;49.556;10.956;2023-09-12T01:02:24;98015.88;;;16.64;100.00
20156;BME280;10238;49.556;10.956;2023-09-12T01:05:14;98015.69;;;16.59;100.00
20156;BME280;10238;49.556;10.956;2023-09-12T01:08:02;98009.66;;;16.57;100.00
20156;BME280;10238;49.556;10.956;2023-09-12T01:10:52;98014.44;;;16.55;100.00
20156;BME280;10238;49.556;10.956;2023-09-12T01:13:41;98011.09;;;16.53;100.00
20156;BME280;10238;49.556;10.956;2023-09-12T01:16:28;98016.88;;;16.50;100.00
20156;BME280;10238;49.556;10.956;2023-09-12T01:19:17;98018.13;;;16.47;100.00
20156;BME280;10238;49.556;10.956;2023-09-12T01:22:33;98018.50;;;16.44;100.00
20156;BME280;10238;49.556;10.956;2023-09-12T01:25:54;98017.44;;;16.39;100.00
20156;BME280;10238;49.556;10.956;2023-09-12T01:28:47;98006.25;;;16.35;100.00
20156;BME280;10238;49.556;10.956;2023-09-12T01:32:08;98005.00;;;16.31;100.00
20156;BME280;10238;49.556;10.956;2023-09-12T01:34:55;98013.44;;;16.28;100.00
20156;BME280;10238;49.556;10.956;2023-09-12T01:37:43;98006.00;;;16.24;100.00
20156;BME280;10238;49.556;10.956;2023-09-12T01:40:34;98009.06;;;16.21;100.00
20156;BME280;10238;49.556;10.956;2023-09-12T01:43:23;98007.44;;;16.20;100.00
20156;BME280;10238;49.556;10.956;2023-09-12T01:46:15;98002.47;;;16.17;100.00
20156;BME280;10238;49.556;10.956;2023-09-12T01:49:05;98002.84;;;16.14;100.00
20156;BME280;10238;49.556;10.956;2023-09-12T01:51:54;97995.19;;;16.11;100.00
20156;BME280;10238;49.556;10.956;2023-09-12T01:54:44;97992.06;;;16.07;100.00
20156;BME280;10238;49.556;10.956;2023-09-12T01:57:32;97994.16;;;16.05;100.00
20156;BME280;10238;49.556;10.956;2023-09-12T02:00:21;97998.66;;;16.05;100.00
20156;BME280;10238;49.556;10.956;2023-09-12T02:03:10;97993.69;;;16.02;100.00
20156;BME280;10238;49.556;10.956;2023-09-12T02:05:57;97985.00;;;16.00;100.00
20156;BME280;10238;49.556;10.956;2023-09-12T02:08:45;97989.56;;;15.99;100.00
20156;BME280;10238;49.556;10.956;2023-09-12T02:11:33;97991.81;;;15.96;100.00
20156;BME280;10238;49.556;10.956;2023-09-12T02:14:21;97999.19;;;15.94;100.00
20156;BME280;10238;49.556;10.956;2023-09-12T02:17:08;97996.09;;;15.90;100.00
20156;BME280;10238;49.556;10.956;2023-09-12T02:19:57;98001.03;;;15.87;100.00
20156;BME280;10238;49.556;10.956;2023-09-12T02:22:44;98008.44;;;15.85;100.00
20156;BME280;10238;49.556;10.956;2023-09-12T02:25:32;98008.66;;;15.83;100.00
20156;BME280;10238;49.556;10.956;2023-09-12T02:28:19;98010.03;;;15.79;100.00
20156;BME280;10238;49.556;10.956;2023-09-12T02:31:10;98008.59;;;15.77;100.00
20156;BME280;10238;49.556;10.956;2023-09-12T02:33:57;98010.84;;;15.73;100.00
20156;BME280;10238;49.556;10.956;2023-09-12T02:36:46;98010.84;;;15.73;100.00
20156;BME280;10238;49.556;10.956;2023-09-12T02:39:34;98013.72;;;15.72;100.00
20156;BME280;10238;49.556;10.956;2023-09-12T02:42:22;98019.47;;;15.69;100.00
20156;BME280;10238;49.556;10.956;2023-09-12T02:45:10;98020.84;;;15.65;100.00
20156;BME280;10238;49.556;10.956;2023-09-12T02:47:58;98022.28;;;15.61;100.00
20156;BME280;10238;49.556;10.956;2023-09-12T02:50:45;98026.00;;;15.60;100.00
20156;BME280;10238;49.556;10.956;2023-09-12T02:53:34;98021.84;;;15.57;100.00
20156;BME280;10238;49.556;10.956;2023-09-12T02:56:22;98015.66;;;15.57;100.00
20156;BME280;10238;49.556;10.956;2023-09-12T02:59:10;98018.53;;;15.55;100.00
20156;BME280;10238;49.556;10.956;2023-09-12T03:01:58;98012.53;;;15.53;100.00
20156;BME280;10238;49.556;10.956;2023-09-12T03:04:45;98018.06;;;15.52;100.00
20156;BME280;10238;49.556;10.956;2023-09-12T03:07:34;98023.63;;;15.50;100.00
20156;BME280;10238;49.556;10.956;2023-09-12T03:10:23;98020.53;;;15.47;100.00
20156;BME280;10238;49.556;10.956;2023-09-12T03:13:11;98013.50;;;15.46;100.00
20156;BME280;10238;49.556;10.956;2023-09-12T03:15:59;98012.88;;;15.44;100.00
20156;BME280;10238;49.556;10.956;2023-09-12T03:18:46;98009.75;;;15.40;100.00
20156;BME280;10238;49.556;10.956;2023-09-12T03:21:34;98015.47;;;15.37;100.00
20156;BME280;10238;49.556;10.956;2023-09-12T03:24:22;98012.97;;;15.36;100.00
20156;BME280;10238;49.556;10.956;2023-09-12T03:27:13;98021.19;;;15.34;100.00
20156;BME280;10238;49.556;10.956;2023-09-12T03:30:00;98008.00;;;15.33;100.00
20156;BME280;10238;49.556;10.956;2023-09-12T03:32:48;98011.69;;;15.32;100.00
20156;BME280;10238;49.556;10.956;2023-09-12T03:35:36;98008.38;;;15.30;100.00
20156;BME280;10238;49.556;10.956;2023-09-12T03:38:23;98013.31;;;15.26;100.00
20156;BME280;10238;49.556;10.956;2023-09-12T03:41:11;98015.13;;;15.26;100.00
20156;BME280;10238;49.556;10.956;2023-09-12T03:44:00;98013.88;;;15.22;100.00
20156;BME280;10238;49.556;10.956;2023-09-12T03:46:48;98009.75;;;15.19;100.00
20156;BME280;10238;49.556;10.956;2023-09-12T03:49:35;98011.59;;;15.18;100.00
20156;BME280;10238;49.556;10.956;2023-09-12T03:52:23;98004.56;;;15.18;100.00
20156;BME280;10238;49.556;10.956;2023-09-12T03:55:10;98005.97;;;15.13;100.00
20156;BME280;10238;49.556;10.956;2023-09-12T03:57:58;98004.31;;;15.12;100.00
20156;BME280;10238;49.556;10.956;2023-09-12T04:00:47;97995.00;;;15.08;100.00
20156;BME280;10238;49.556;10.956;2023-09-12T04:03:34;98005.06;;;15.06;100.00
20156;BME280;10238;49.556;10.956;2023-09-12T04:06:22;98007.75;;;15.06;100.00
20156;BME280;10238;49.556;10.956;2023-09-12T04:09:10;98004.44;;;15.04;100.00
20156;BME280;10238;49.556;10.956;2023-09-12T04:11:57;98007.31;;;15.03;100.00
20156;BME280;10238;49.556;10.956;2023-09-12T04:14:45;98004.84;;;15.01;100.00
20156;BME280;10238;49.556;10.956;2023-09-12T04:17:34;98005.22;;;14.98;100.00
20156;BME280;10238;49.556;10.956;2023-09-12T04:20:21;98010.94;;;14.95;100.00
20156;BME280;10238;49.556;10.956;2023-09-12T04:23:09;98012.13;;;14.93;100.00
20156;BME280;10238;49.556;10.956;2023-09-12T04:25:56;98015.19;;;14.90;100.00
20156;BME280;10238;49.556;10.956;2023-09-12T04:28:46;98016.22;;;14.89;100.00
20156;BME280;10238;49.556;10.956;2023-09-12T04:31:34;98014.38;;;14.89;100.00
20156;BME280;10238;49.556;10.956;2023-09-12T04:34:23;98017.06;;;14.89;100.00
20156;BME280;10238;49.556;10.956;2023-09-12T04:37:10;98007.16;;;14.90;100.00
20156;BME280;10238;49.556;10.956;2023-09-12T04:39:58;98018.25;;;14.87;100.00
20156;BME280;10238;49.556;10.956;2023-09-12T04:42:45;98011.44;;;14.84;100.00
20156;BME280;10238;49.556;10.956;2023-09-12T04:45:33;98011.44;;;14.84;100.00
20156;BME280;10238;49.556;10.956;2023-09-12T04:48:21;98010.81;;;14.82;100.00
20156;BME280;10238;49.556;10.956;2023-09-12T04:51:10;98012.84;;;14.80;100.00
20156;BME280;10238;49.556;10.956;2023-09-12T04:53:57;98012.66;;;14.82;100.00
20156;BME280;10238;49.556;10.956;2023-09-12T04:56:45;98013.69;;;14.81;100.00
20156;BME280;10238;49.556;10.956;2023-09-12T04:59:35;98013.69;;;14.81;100.00
20156;BME280;10238;49.556;10.956;2023-09-12T05:02:22;98012.84;;;14.80;100.00
20156;BME280;10238;49.556;10.956;2023-09-12T05:05:10;98007.50;;;14.80;100.00
20156;BME280;10238;49.556;10.956;2023-09-12T05:07:59;98011.00;;;14.81;100.00
20156;BME280;10238;49.556;10.956;2023-09-12T05:10:47;98006.28;;;14.83;100.00
20156;BME280;10238;49.556;10.956;2023-09-12T05:13:35;98006.72;;;14.86;100.00
20156;BME280;10238;49.556;10.956;2023-09-12T05:16:23;98005.91;;;14.86;100.00
20156;BME280;10238;49.556;10.956;2023-09-12T05:19:11;98016.41;;;14.87;100.00
20156;BME280;10238;49.556;10.956;2023-09-12T05:21:58;98015.38;;;14.88;100.00
20156;BME280;10238;49.556;10.956;2023-09-12T05:24:47;98015.00;;;14.91;100.00
20156;BME280;10238;49.556;10.956;2023-09-12T05:27:35;98027.38;;;14.92;100.00
20156;BME280;10238;49.556;10.956;2023-09-12T05:30:23;98028.84;;;14.95;100.00
20156;BME280;10238;49.556;10.956;2023-09-12T05:33:11;98034.47;;;15.00;100.00
20156;BME280;10238;49.556;10.956;2023-09-12T05:35:58;98033.25;;;15.02;100.00
20156;BME280;10238;49.556;10.956;2023-09-12T05:38:46;98037.38;;;15.05;100.00
20156;BME280;10238;49.556;10.956;2023-09-12T05:41:35;98036.16;;;15.07;100.00
20156;BME280;10238;49.556;10.956;2023-09-12T05:44:24;98037.47;;;15.11;100.00
20156;BME280;10238;49.556;10.956;2023-09-12T05:47:11;98042.06;;;15.18;100.00
20156;BME280;10238;49.556;10.956;2023-09-12T05:49:59;98040.00;;;15.19;100.00
20156;BME280;10238;49.556;10.956;2023-09-12T05:52:47;98046.00;;;15.22;100.00
20156;BME280;10238;49.556;10.956;2023-09-12T05:55:34;98042.75;;;15.26;100.00
20156;BME280;10238;49.556;10.956;2023-09-12T05:58:23;98049.56;;;15.29;100.00
20156;BME280;10238;49.556;10.956;2023-09-12T06:01:11;98044.69;;;15.32;100.00
20156;BME280;10238;49.556;10.956;2023-09-12T06:03:59;98041.88;;;15.40;100.00
20156;BME280;10238;49.556;10.956;2023-09-12T06:06:46;98043.16;;;15.44;100.00
20156;BME280;10238;49.556;10.956;2023-09-12T06:09:34;98042.38;;;15.50;100.00
20156;BME280;10238;49.556;10.956;2023-09-12T06:12:22;98038.31;;;15.54;100.00
20156;BME280;10238;49.556;10.956;2023-09-12T06:15:11;98043.06;;;15.59;100.00
20156;BME280;10238;49.556;10.956;2023-09-12T06:17:58;98040.91;;;15.69;100.00
20156;BME280;10238;49.556;10.956;2023-09-12T06:20:46;98044.50;;;15.82;100.00
20156;BME280;10238;49.556;10.956;2023-09-12T06:23:33;98046.47;;;15.95;100.00
20156;BME280;10238;49.556;10.956;2023-09-12T06:26:21;98052.28;;;16.05;100.00
20156;BME280;10238;49.556;10.956;2023-09-12T06:29:09;98054.59;;;16.08;100.00
20156;BME280;10238;49.556;10.956;2023-09-12T06:31:58;98058.72;;;16.10;100.00
20156;BME280;10238;49.556;10.956;2023-09-12T06:34:46;98058.56;;;16.18;100.00
20156;BME280;10238;49.556;10.956;2023-09-12T06:37:34;98061.69;;;16.22;100.00
20156;BME280;10238;49.556;10.956;2023-09-12T06:40:21;98066.13;;;16.36;100.00
20156;BME280;10238;49.556;10.956;2023-09-12T06:43:09;98063.72;;;16.47;100.00
20156;BME280;10238;49.556;10.956;2023-09-12T06:45:57;98069.94;;;16.54;100.00
20156;BME280;10238;49.556;10.956;2023-09-12T06:48:47;98067.91;;;16.56;100.00
20156;BME280;10238;49.556;10.956;2023-09-12T06:51:35;98063.78;;;16.60;100.00
20156;BME280;10238;49.556;10.956;2023-09-12T06:54:24;98062.41;;;16.71;100.00
20156;BME280;10238;49.556;10.956;2023-09-12T06:57:11;98068.22;;;16.81;100.00
20156;BME280;10238;49.556;10.956;2023-09-12T06:59:59;98062.66;;;16.89;100.00
20156;BME280;10238;49.556;10.956;2023-09-12T07:02:47;98066.22;;;16.96;100.00
20156;BME280;10238;49.556;10.956;2023-09-12T07:05:37;98072.22;;;17.04;100.00
20156;BME280;10238;49.556;10.956;2023-09-12T07:08:26;98081.31;;;17.10;100.00
20156;BME280;10238;49.556;10.956;2023-09-12T07:11:15;98082.59;;;17.27;100.00
20156;BME280;10238;49.556;10.956;2023-09-12T07:14:02;98081.59;;;17.41;100.00
20156;BME280;10238;49.556;10.956;2023-09-12T07:16:50;98083.72;;;17.52;100.00
20156;BME280;10238;49.556;10.956;2023-09-12T07:19:38;98079.78;;;17.61;100.00
20156;BME280;10238;49.556;10.956;2023-09-12T07:22:29;98085.19;;;17.74;100.00
20156;BME280;10238;49.556;10.956;2023-09-12T07:25:17;98075.47;;;17.86;100.00
20156;BME280;10238;49.556;10.956;2023-09-12T07:28:05;98064.06;;;18.04;100.00
20156;BME280;10238;49.556;10.956;2023-09-12T07:30:53;98065.28;;;18.21;100.00
20156;BME280;10238;49.556;10.956;2023-09-12T07:33:41;98064.44;;;18.33;100.00
20156;BME280;10238;49.556;10.956;2023-09-12T07:36:28;98060.50;;;18.42;100.00
20156;BME280;10238;49.556;10.956;2023-09-12T07:39:18;98059.44;;;18.56;100.00
20156;BME280;10238;49.556;10.956;2023-09-12T07:42:05;98058.53;;;18.75;100.00
20156;BME280;10238;49.556;10.956;2023-09-12T07:44:52;98054.31;;;18.92;100.00
20156;BME280;10238;49.556;10.956;2023-09-12T07:47:40;98059.41;;;19.13;100.00
20156;BME280;10238;49.556;10.956;2023-09-12T07:50:28;98052.66;;;19.36;100.00
20156;BME280;10238;49.556;10.956;2023-09-12T07:53:16;98053.16;;;19.51;100.00
20156;BME280;10238;49.556;10.956;2023-09-12T07:56:05;98045.03;;;19.57;100.00
20156;BME280;10238;49.556;10.956;2023-09-12T07:58:53;98040.59;;;19.69;100.00
20156;BME280;10238;49.556;10.956;2023-09-12T08:01:41;98057.88;;;19.86;100.00
20156;BME280;10238;49.556;10.956;2023-09-12T08:04:29;98050.72;;;19.98;100.00
20156;BME280;10238;49.556;10.956;2023-09-12T08:07:16;98042.94;;;20.08;100.00
20156;BME280;10238;49.556;10.956;2023-09-12T08:10:05;98041.03;;;20.15;100.00
20156;BME280;10238;49.556;10.956;2023-09-12T08:12:54;98034.81;;;20.33;100.00
20156;BME280;10238;49.556;10.956;2023-09-12T08:15:42;98032.81;;;20.46;100.00
20156;BME280;10238;49.556;10.956;2023-09-12T08:18:30;98034.69;;;20.64;100.00
20156;BME280;10238;49.556;10.956;2023-09-12T08:21:18;98026.34;;;20.83;100.00
20156;BME280;10238;49.556;10.956;2023-09-12T08:24:05;98025.06;;;21.04;100.00
20156;BME280;10238;49.556;10.956;2023-09-12T08:26:53;98030.56;;;21.27;100.00
20156;BME280;10238;49.556;10.956;2023-09-12T08:29:43;98018.00;;;21.44;100.00
20156;BME280;10238;49.556;10.956;2023-09-12T08:32:32;98009.13;;;21.67;100.00
20156;BME280;10238;49.556;10.956;2023-09-12T08:35:20;98006.47;;;21.78;100.00
20156;BME280;10238;49.556;10.956;2023-09-12T08:38:07;98006.00;;;22.04;100.00
20156;BME280;10238;49.556;10.956;2023-09-12T08:40:55;98002.59;;;22.20;100.00
20156;BME280;10238;49.556;10.956;2023-09-12T08:43:45;97999.16;;;22.36;100.00
20156;BME280;10238;49.556;10.956;2023-09-12T08:46:36;98008.31;;;22.58;100.00
20156;BME280;10238;49.556;10.956;2023-09-12T08:49:26;97999.56;;;22.79;100.00
20156;BME280;10238;49.556;10.956;2023-09-12T08:52:15;97990.41;;;22.97;100.00
20156;BME280;10238;49.556;10.956;2023-09-12T08:55:03;97983.56;;;23.22;100.00
20156;BME280;10238;49.556;10.956;2023-09-12T08:57:50;97968.00;;;23.46;100.00
20156;BME280;10238;49.556;10.956;2023-09-12T09:00:39;97967.69;;;23.76;100.00
20156;BME280;10238;49.556;10.956;2023-09-12T09:03:30;97949.91;;;24.01;100.00
20156;BME280;10238;49.556;10.956;2023-09-12T09:06:19;97956.69;;;24.20;100.00
20156;BME280;10238;49.556;10.956;2023-09-12T09:09:09;97952.34;;;24.41;100.00
20156;BME280;10238;49.556;10.956;2023-09-12T09:12:00;97950.56;;;24.68;100.00
20156;BME280;10238;49.556;10.956;2023-09-12T09:14:48;97956.84;;;24.95;100.00
20156;BME280;10238;49.556;10.956;2023-09-12T09:17:35;97956.28;;;25.19;100.00
20156;BME280;10238;49.556;10.956;2023-09-12T09:20:31;97961.72;;;25.41;100.00
20156;BME280;10238;49.556;10.956;2023-09-12T09:23:20;97950.22;;;25.71;100.00
20156;BME280;10238;49.556;10.956;2023-09-12T09:26:09;97957.84;;;26.00;100.00
20156;BME280;10238;49.556;10.956;2023-09-12T09:29:05;97957.06;;;26.05;100.00
20156;BME280;10238;49.556;10.956;2023-09-12T09:31:53;97933.69;;;26.14;100.00
20156;BME280;10238;49.556;10.956;2023-09-12T09:34:41;97940.09;;;26.44;100.00
20156;BME280;10238;49.556;10.956;2023-09-12T09:37:30;97936.44;;;26.75;100.00
20156;BME280;10238;49.556;10.956;2023-09-12T09:40:17;97928.34;;;27.00;100.00
20156;BME280;10238;49.556;10.956;2023-09-12T09:43:05;97920.16;;;27.05;100.00
20156;BME280;10238;49.556;10.956;2023-09-12T09:45:52;97924.25;;;27.13;100.00
20156;BME280;10238;49.556;10.956;2023-09-12T09:48:48;97923.50;;;27.48;100.00
20156;BME280;10238;49.556;10.956;2023-09-12T09:51:40;97918.03;;;27.98;100.00
20156;BME280;10238;49.556;10.956;2023-09-12T09:54:30;97911.34;;;28.34;100.00
20156;BME280;10238;49.556;10.956;2023-09-12T09:57:19;97909.16;;;28.36;100.00
20156;BME280;10238;49.556;10.956;2023-09-12T10:00:07;97897.16;;;28.27;100.00
20156;BME280;10238;49.556;10.956;2023-09-12T10:03:04;97899.06;;;28.36;100.00
20156;BME280;10238;49.556;10.956;2023-09-12T10:05:54;97900.53;;;28.77;100.00
20156;BME280;10238;49.556;10.956;2023-09-12T10:08:46;97902.88;;;28.99;100.00
20156;BME280;10238;49.556;10.956;2023-09-12T10:11:35;97901.09;;;29.23;100.00
20156;BME280;10238;49.556;10.956;2023-09-12T10:14:27;97893.69;;;29.62;100.00
20156;BME280;10238;49.556;10.956;2023-09-12T10:17:19;97888.38;;;29.99;100.00
20156;BME280;10238;49.556;10.956;2023-09-12T10:20:15;97895.31;;;30.20;100.00
20156;BME280;10238;49.556;10.956;2023-09-12T10:23:06;97894.34;;;30.53;100.00
20156;BME280;10238;49.556;10.956;2023-09-12T10:25:58;97877.59;;;30.78;100.00
20156;BME280;10238;49.556;10.956;2023-09-12T10:28:48;97869.44;;;30.73;100.00
20156;BME280;10238;49.556;10.956;2023-09-12T10:31:42;97873.59;;;30.89;95.27
20156;BME280;10238;49.556;10.956;2023-09-12T10:34:30;97870.13;;;31.02;100.00
20156;BME280;10238;49.556;10.956;2023-09-12T10:37:22;97874.47;;;31.22;100.00
20156;BME280;10238;49.556;10.956;2023-09-12T10:40:11;97870.91;;;31.40;100.00
20156;BME280;10238;49.556;10.956;2023-09-12T10:43:03;97865.00;;;31.65;100.00
20156;BME280;10238;49.556;10.956;2023-09-12T10:45:53;97862.81;;;31.81;100.00
20156;BME280;10238;49.556;10.956;2023-09-12T10:48:41;97855.69;;;32.07;100.00
20156;BME280;10238;49.556;10.956;2023-09-12T10:51:28;97846.66;;;32.20;81.07
20156;BME280;10238;49.556;10.956;2023-09-12T10:54:23;97852.69;;;31.31;76.04
20156;BME280;10238;49.556;10.956;2023-09-12T10:57:12;97860.63;;;31.32;100.00
20156;BME280;10238;49.556;10.956;2023-09-12T11:00:11;97859.97;;;31.86;100.00
20156;BME280;10238;49.556;10.956;2023-09-12T11:03:36;97859.28;;;32.21;87.34
20156;BME280;10238;49.556;10.956;2023-09-12T11:06:29;97856.84;;;32.33;99.08
20156;BME280;10238;49.556;10.956;2023-09-12T11:09:17;97850.41;;;32.64;97.51
20156;BME280;10238;49.556;10.956;2023-09-12T11:12:35;97852.31;;;32.91;96.16
20156;BME280;10238;49.556;10.956;2023-09-12T11:15:24;97846.56;;;33.01;91.61
20156;BME280;10238;49.556;10.956;2023-09-12T11:18:12;97850.59;;;33.17;92.02
20156;BME280;10238;49.556;10.956;2023-09-12T11:21:01;97834.78;;;33.45;92.05
20156;BME280;10238;49.556;10.956;2023-09-12T11:23:53;97831.81;;;33.63;86.11
20156;BME280;10238;49.556;10.956;2023-09-12T11:26:58;97830.38;;;33.66;82.79
20156;BME280;10238;49.556;10.956;2023-09-12T11:29:47;97835.31;;;33.77;85.81
20156;BME280;10238;49.556;10.956;2023-09-12T11:32:36;97824.38;;;33.94;82.43
20156;BME280;10238;49.556;10.956;2023-09-12T11:35:25;97820.84;;;34.02;80.89
20156;BME280;10238;49.556;10.956;2023-09-12T11:38:26;97829.78;;;33.77;80.79
20156;BME280;10238;49.556;10.956;2023-09-12T11:41:39;97829.78;;;33.77;79.83
20156;BME280;10238;49.556;10.956;2023-09-12T11:44:28;97822.13;;;33.96;83.54
20156;BME280;10238;49.556;10.956;2023-09-12T11:47:18;97818.16;;;34.28;82.00
20156;BME280;10238;49.556;10.956;2023-09-12T11:50:07;97816.63;;;34.52;79.84
20156;BME280;10238;49.556;10.956;2023-09-12T11:53:00;97816.81;;;34.47;65.57
20156;BME280;10238;49.556;10.956;2023-09-12T11:55:50;97818.94;;;34.11;76.23
20156;BME280;10238;49.556;10.956;2023-09-12T11:58:38;97818.75;;;34.08;66.94
20156;BME280;10238;49.556;10.956;2023-09-12T12:01:29;97827.53;;;34.10;80.33
20156;BME280;10238;49.556;10.956;2023-09-12T12:04:20;97827.41;;;34.23;79.75
20156;BME280;10238;49.556;10.956;2023-09-12T12:07:09;97824.69;;;34.32;73.97
20156;BME280;10238;49.556;10.956;2023-09-12T12:09:57;97822.91;;;34.27;69.24
20156;BME280;10238;49.556;10.956;2023-09-12T12:12:45;97817.72;;;34.34;72.65
20156;BME280;10238;49.556;10.956;2023-09-12T12:15:34;97816.50;;;34.66;77.42
20156;BME280;10238;49.556;10.956;2023-09-12T12:18:21;97813.78;;;35.09;75.86
20156;BME280;10238;49.556;10.956;2023-09-12T12:21:10;97808.75;;;35.36;73.89
20156;BME280;10238;49.556;10.956;2023-09-12T12:23:59;97803.84;;;35.42;73.66
20156;BME280;10238;49.556;10.956;2023-09-12T12:26:47;97814.09;;;35.50;72.63
20156;BME280;10238;49.556;10.956;2023-09-12T12:29:34;97809.66;;;35.66;70.89
20156;BME280;10238;49.556;10.956;2023-09-12T12:32:23;97801.66;;;35.73;66.62
20156;BME280;10238;49.556;10.956;2023-09-12T12:35:17;97800.06;;;35.72;67.70
20156;BME280;10238;49.556;10.956;2023-09-12T12:38:27;97797.41;;;35.75;66.96
20156;BME280;10238;49.556;10.956;2023-09-12T12:41:16;97802.41;;;35.02;54.61
20156;BME280;10238;49.556;10.956;2023-09-12T12:44:04;97792.16;;;34.20;62.12
20156;BME280;10238;49.556;10.956;2023-09-12T12:46:53;97799.91;;;34.40;62.68
20156;BME280;10238;49.556;10.956;2023-09-12T12:49:41;97788.72;;;34.62;70.83
20156;BME280;10238;49.556;10.956;2023-09-12T12:52:29;97792.16;;;34.76;70.96
20156;BME280;10238;49.556;10.956;2023-09-12T12:55:20;97781.91;;;35.11;71.49
20156;BME280;10238;49.556;10.956;2023-09-12T12:58:08;97778.16;;;35.50;71.68
20156;BME280;10238;49.556;10.956;2023-09-12T13:00:56;97768.31;;;35.78;61.84
20156;BME280;10238;49.556;10.956;2023-09-12T13:03:43;97767.78;;;35.13;65.37
20156;BME280;10238;49.556;10.956;2023-09-12T13:06:31;97767.44;;;35.23;69.90
20156;BME280;10238;49.556;10.956;2023-09-12T13:09:22;97762.19;;;35.55;70.68
20156;BME280;10238;49.556;10.956;2023-09-12T13:12:11;97764.09;;;35.72;64.07
20156;BME280;10238;49.556;10.956;2023-09-12T13:14:58;97767.56;;;35.60;64.41
20156;BME280;10238;49.556;10.956;2023-09-12T13:17:46;97757.59;;;35.68;68.27
20156;BME280;10238;49.556;10.956;2023-09-12T13:20:34;97762.28;;;35.84;68.88
20156;BME280;10238;49.556;10.956;2023-09-12T13:23:21;97753.19;;;35.84;67.26
20156;BME280;10238;49.556;10.956;2023-09-12T13:26:10;97750.97;;;35.98;67.48
20156;BME280;10238;49.556;10.956;2023-09-12T13:29:00;97749.94;;;36.11;63.98
20156;BME280;10238;49.556;10.956;2023-09-12T13:31:48;97740.47;;;36.12;65.95
20156;BME280;10238;49.556;10.956;2023-09-12T13:34:35;97739.41;;;36.33;63.92
20156;BME280;10238;49.556;10.956;2023-09-12T13:37:23;97737.06;;;36.44;64.08
20156;BME280;10238;49.556;10.956;2023-09-12T13:40:13;97735.69;;;36.50;61.12
20156;BME280;10238;49.556;10.956;2023-09-12T13:43:00;97735.03;;;36.53;58.54
20156;BME280;10238;49.556;10.956;2023-09-12T13:45:50;97725.28;;;36.47;59.16
20156;BME280;10238;49.556;10.956;2023-09-12T13:48:37;97723.59;;;36.34;61.47
20156;BME280;10238;49.556;10.956;2023-09-12T13:51:25;97726.25;;;36.51;62.03
20156;BME280;10238;49.556;10.956;2023-09-12T13:54:13;97722.66;;;36.71;60.25
20156;BME280;10238;49.556;10.956;2023-09-12T13:57:01;97722.59;;;36.38;48.92
20156;BME280;10238;49.556;10.956;2023-09-12T13:59:49;97722.63;;;36.01;61.11
20156;BME280;10238;49.556;10.956;2023-09-12T14:02:38;97718.03;;;36.05;57.89
20156;BME280;10238;49.556;10.956;2023-09-12T14:05:26;97717.66;;;36.15;60.19
20156;BME280;10238;49.556;10.956;2023-09-12T14:08:13;97716.25;;;36.38;60.05
20156;BME280;10238;49.556;10.956;2023-09-12T14:11:01;97722.91;;;36.08;53.38
20156;BME280;10238;49.556;10.956;2023-09-12T14:13:50;97715.50;;;35.54;57.50
20156;BME280;10238;49.556;10.956;2023-09-12T14:16:55;97715.03;;;35.52;58.84
20156;BME280;10238;49.556;10.956;2023-09-12T14:19:45;97714.06;;;35.94;61.08
20156;BME280;10238;49.556;10.956;2023-09-12T14:22:33;97712.72;;;36.29;61.76
20156;BME280;10238;49.556;10.956;2023-09-12T14:25:23;97703.06;;;36.35;61.94
20156;BME280;10238;49.556;10.956;2023-09-12T14:28:13;97705.84;;;36.35;55.72
20156;BME280;10238;49.556;10.956;2023-09-12T14:31:01;97703.47;;;36.16;60.22
20156;BME280;10238;49.556;10.956;2023-09-12T14:33:50;97697.44;;;36.23;62.15
20156;BME280;10238;49.556;10.956;2023-09-12T14:36:40;97696.53;;;36.39;60.96